createdAt,value
2019-01-27T13:21:46.474Z,3960.00
2019-01-27T13:23:45.957Z,3600.00
2019-01-27T13:24:45.860Z,3548.00
2019-01-27T13:25:45.796Z,3680.00
2019-01-27T13:26:46.282Z,3680.00
2019-01-27T13:27:46.089Z,3852.00
2019-01-27T13:28:45.713Z,4340.00
2019-01-27T13:29:46.439Z,4348.00
2019-01-27T13:30:45.726Z,4068.00
2019-01-27T13:31:45.689Z,3980.00
2019-01-27T13:33:46.013Z,3748.00
2019-01-27T13:35:45.598Z,3788.00
2019-01-27T13:36:45.546Z,3992.00
2019-01-27T13:37:45.561Z,4036.00
2019-01-27T13:38:50.989Z,4360.00
2019-01-27T13:39:45.928Z,4480.00
2019-01-27T13:40:45.750Z,4352.00
2019-01-27T13:42:45.482Z,3908.00
2019-01-27T13:43:45.399Z,3904.00
2019-01-27T13:45:45.713Z,3580.00
2019-01-27T13:46:45.319Z,3596.00
2019-01-27T13:47:45.343Z,3924.00
2019-01-27T13:48:45.419Z,3676.00
2019-01-27T13:49:45.388Z,3536.00
2019-01-27T13:50:45.336Z,3680.00
2019-01-27T13:51:45.558Z,3624.00
2019-01-27T13:52:45.190Z,3672.00
2019-01-27T13:53:45.258Z,3936.00
2019-01-27T13:54:45.139Z,3844.00
2019-01-27T13:55:45.134Z,3648.00
2019-01-27T13:56:45.097Z,3456.00
2019-01-27T13:57:45.114Z,3196.00
2019-01-27T13:58:45.364Z,2936.00
2019-01-27T13:59:45.037Z,2784.00
2019-01-27T14:00:45.009Z,2472.00
2019-01-27T14:01:44.991Z,2188.00
2019-01-27T14:02:45.034Z,1872.00
2019-01-27T14:03:45.039Z,1608.00
2019-01-27T14:04:48.610Z,1488.00
2019-01-27T14:05:44.896Z,1480.00
2019-01-27T14:06:44.954Z,1608.00
2019-01-27T14:08:44.892Z,1708.00
2019-01-27T14:09:44.875Z,1856.00
2019-01-27T14:10:45.083Z,1920.00
2019-01-27T14:11:44.847Z,2244.00
2019-01-27T14:12:44.745Z,2432.00
2019-01-27T14:13:45.017Z,2700.00
2019-01-27T14:14:46.300Z,2672.00
2019-01-27T14:15:45.520Z,2848.00
2019-01-27T14:16:45.032Z,2560.00
2019-01-27T14:17:44.809Z,2372.00
2019-01-27T14:18:44.898Z,2340.00
2019-01-27T14:19:44.980Z,2352.00
2019-01-27T14:20:45.273Z,2100.00
2019-01-27T14:21:44.622Z,2184.00
2019-01-27T14:22:44.969Z,2132.00
2019-01-27T14:23:44.495Z,2104.00
2019-01-27T14:24:44.886Z,2160.00
2019-01-27T14:27:44.645Z,2284.00
2019-01-27T14:28:44.729Z,2500.00
2019-01-27T14:29:44.613Z,2784.00
2019-01-27T14:30:44.447Z,2696.00
2019-01-27T14:31:44.302Z,2468.00
2019-01-27T14:32:44.286Z,2496.00
2019-01-27T14:33:44.438Z,2352.00
2019-01-27T14:34:44.300Z,2076.00
2019-01-27T14:36:44.208Z,2232.00
2019-01-27T14:37:44.652Z,2340.00
2019-01-27T14:38:44.780Z,2188.00
2019-01-27T14:40:44.511Z,2476.00
2019-01-27T14:41:44.977Z,2356.00
2019-01-27T14:42:44.106Z,2224.00
2019-01-27T14:43:44.026Z,2164.00
2019-01-27T14:44:44.012Z,2016.00
2019-01-27T14:45:44.034Z,1956.00
2019-01-27T14:46:43.963Z,1916.00
2019-01-27T14:47:44.265Z,1768.00
2019-01-27T14:48:43.903Z,1780.00
2019-01-27T14:49:43.950Z,1900.00
2019-01-27T14:50:43.884Z,1968.00
2019-01-27T14:51:43.892Z,1980.00
2019-01-27T14:52:43.866Z,1896.00
2019-01-27T14:53:44.480Z,1824.00
2019-01-27T14:54:43.792Z,1680.00
2019-01-27T14:55:43.786Z,1492.00
2019-01-27T14:56:43.728Z,1316.00
2019-01-27T14:57:43.754Z,1184.00
2019-01-27T14:58:43.706Z,1456.00
2019-01-27T14:59:44.116Z,1868.00
2019-01-27T15:00:43.638Z,1936.00
2019-01-27T15:01:43.604Z,1684.00
2019-01-27T15:02:43.583Z,1604.00
2019-01-27T15:03:43.782Z,1516.00
2019-01-27T15:04:43.548Z,1300.00
2019-01-27T15:05:43.811Z,1136.00
2019-01-27T15:06:43.494Z,988.00
2019-01-27T15:07:43.468Z,1088.00
2019-01-27T15:08:45.954Z,1004.00
2019-01-27T15:09:43.472Z,804.00
2019-01-27T15:10:43.401Z,676.00
2019-01-27T15:11:43.438Z,728.00
2019-01-27T15:12:43.654Z,704.00
2019-01-27T15:13:43.330Z,680.00
2019-01-27T15:14:43.375Z,660.00
2019-01-27T15:15:43.371Z,604.00
2019-01-27T15:16:43.307Z,552.00
2019-01-27T15:17:43.266Z,580.00
2019-01-27T15:18:43.266Z,604.00
2019-01-27T15:20:43.169Z,468.00
2019-01-27T15:21:43.185Z,444.00
2019-01-27T15:22:43.121Z,440.00
2019-01-27T15:23:43.178Z,412.00
2019-01-27T15:24:43.093Z,436.00
2019-01-27T15:25:43.080Z,424.00
2019-01-27T15:26:43.329Z,400.00
2019-01-27T15:27:43.127Z,372.00
2019-01-27T15:28:43.000Z,368.00
2019-01-27T15:29:43.016Z,308.00
2019-01-27T15:30:42.944Z,340.00
2019-01-27T15:31:42.989Z,336.00
2019-01-27T15:32:43.220Z,304.00
2019-01-27T15:33:42.989Z,324.00
2019-01-27T15:34:42.879Z,312.00
2019-01-27T15:35:42.856Z,288.00
2019-01-27T15:36:42.838Z,264.00
2019-01-27T15:37:42.767Z,228.00
2019-01-27T15:38:42.766Z,188.00
2019-01-27T15:39:43.082Z,184.00
2019-01-27T15:40:42.746Z,164.00
2019-01-27T15:41:42.684Z,160.00
2019-01-27T15:42:42.650Z,148.00
2019-01-27T15:43:48.542Z,152.00
2019-01-27T15:44:42.609Z,152.00
2019-01-27T15:45:42.980Z,148.00
2019-01-27T15:46:44.301Z,144.00
2019-01-27T15:48:42.506Z,148.00
2019-01-27T15:49:42.601Z,156.00
2019-01-27T15:50:47.107Z,144.00
2019-01-27T15:51:43.124Z,144.00
2019-01-27T15:52:43.119Z,160.00
2019-01-27T15:54:42.486Z,156.00
2019-01-27T15:55:42.358Z,140.00
2019-01-27T15:56:42.353Z,132.00
2019-01-27T15:57:42.692Z,116.00
2019-01-27T15:58:42.343Z,100.00
2019-01-27T15:59:42.651Z,92.00
2019-01-27T16:00:42.806Z,80.00
2019-01-27T16:01:42.203Z,72.00
2019-01-27T16:02:42.535Z,64.00
2019-01-27T16:03:42.465Z,52.00
2019-01-27T16:04:42.425Z,44.00
2019-01-27T16:06:42.378Z,32.00
2019-01-27T16:07:42.086Z,28.00
2019-01-27T16:08:42.060Z,24.00
2019-01-27T16:09:42.142Z,20.00
2019-01-27T16:10:42.305Z,16.00
2019-01-27T16:11:41.962Z,16.00
2019-01-27T16:12:42.206Z,12.00
2019-01-27T16:13:41.932Z,8.00
2019-01-27T16:14:41.907Z,8.00
2019-01-27T16:15:42.091Z,4.00
2019-01-27T16:16:42.272Z,8.00
2019-01-27T16:17:41.834Z,8.00
2019-01-27T16:18:41.975Z,4.00
2019-01-27T16:19:42.492Z,4.00
2019-01-27T16:20:41.760Z,4.00
2019-01-27T16:21:41.778Z,4.00
2019-01-27T16:22:42.084Z,4.00
2019-01-27T16:23:41.703Z,4.00
2019-01-27T16:24:41.675Z,0.00
2019-01-27T16:25:41.627Z,4.00
2019-01-27T16:26:41.625Z,4.00
2019-01-27T16:27:42.001Z,0.00
2019-01-27T16:28:41.646Z,0.00
2019-01-27T16:29:41.827Z,0.00
2019-01-27T16:30:44.762Z,0.00
2019-01-27T16:31:41.492Z,0.00
2019-01-27T16:32:41.455Z,0.00
2019-01-27T16:33:41.496Z,0.00
2019-01-27T16:34:41.530Z,0.00
2019-01-27T16:35:41.686Z,0.00
2019-01-27T16:36:41.360Z,0.00
2019-01-27T16:37:41.349Z,0.00
2019-01-27T16:38:41.322Z,0.00
2019-01-27T16:39:41.357Z,0.00
2019-01-27T16:40:41.310Z,0.00
2019-01-27T16:41:41.562Z,0.00
2019-01-27T16:42:41.243Z,0.00
2019-01-27T16:44:41.619Z,0.00
2019-01-27T16:45:41.144Z,0.00
2019-01-27T16:46:41.120Z,0.00
2019-01-27T16:47:41.454Z,0.00
2019-01-27T16:49:41.389Z,0.00
2019-01-27T16:50:41.027Z,0.00
2019-01-27T16:53:41.050Z,0.00
2019-01-27T16:56:41.205Z,0.00
2019-01-27T16:57:40.912Z,0.00
2019-01-27T16:58:40.847Z,0.00
2019-01-27T16:59:40.849Z,0.00
2019-01-27T17:00:40.785Z,0.00
2019-01-27T17:01:40.763Z,0.00
2019-01-27T17:02:41.058Z,0.00
2019-01-27T17:03:40.764Z,0.00
2019-01-27T17:04:40.693Z,0.00
2019-01-27T17:05:40.724Z,0.00
2019-01-27T17:06:40.635Z,0.00
2019-01-27T17:07:40.617Z,0.00
2019-01-27T17:08:40.641Z,0.00
2019-01-27T17:09:41.083Z,0.00
2019-01-27T17:10:41.064Z,0.00
2019-01-27T17:13:40.461Z,0.00
2019-01-27T17:14:40.449Z,0.00
2019-01-27T17:15:40.588Z,0.00
2019-01-27T17:16:40.699Z,0.00
2019-01-27T17:17:40.396Z,0.00
2019-01-27T17:18:40.503Z,0.00
2019-01-27T17:19:40.332Z,0.00
2019-01-27T17:20:40.427Z,0.00
2019-01-27T17:21:40.545Z,0.00
2019-01-27T17:22:40.266Z,0.00
2019-01-27T17:23:41.597Z,0.00
2019-01-27T17:24:40.203Z,0.00
2019-01-27T17:25:40.220Z,0.00
2019-01-27T17:26:40.155Z,0.00
2019-01-27T17:27:40.189Z,0.00
2019-01-27T17:28:40.113Z,0.00
2019-01-27T17:29:40.688Z,0.00
2019-01-27T17:30:40.064Z,0.00
2019-01-27T17:31:44.739Z,0.00
2019-01-27T17:32:40.016Z,0.00
2019-01-27T17:33:40.071Z,0.00
2019-01-27T17:34:39.953Z,0.00
2019-01-27T17:35:40.240Z,0.00
2019-01-27T17:36:40.078Z,0.00
2019-01-27T17:37:39.914Z,0.00
2019-01-27T17:39:39.902Z,0.00
2019-01-27T17:41:40.092Z,0.00
2019-01-27T17:42:39.769Z,0.00
2019-01-27T17:43:39.819Z,0.00
2019-01-27T17:44:39.704Z,0.00
2019-01-27T17:46:39.710Z,0.00
2019-01-27T17:47:46.262Z,0.00
2019-01-27T17:48:39.918Z,0.00
2019-01-27T17:49:39.595Z,0.00
2019-01-27T17:51:39.547Z,0.00
2019-01-27T17:52:40.271Z,0.00
2019-01-27T17:53:39.793Z,0.00
2019-01-27T17:54:39.478Z,0.00
2019-01-27T17:55:39.449Z,0.00
2019-01-27T17:56:39.417Z,0.00
2019-01-27T17:57:39.606Z,0.00
2019-01-27T17:58:39.536Z,0.00
2019-01-27T17:59:39.602Z,0.00
2019-01-27T18:01:39.376Z,0.00
2019-01-27T18:02:39.280Z,0.00
2019-01-27T18:03:39.262Z,0.00
2019-01-27T18:04:39.560Z,0.00
2019-01-27T18:05:39.299Z,0.00
2019-01-27T18:06:39.580Z,0.00
2019-01-27T18:08:39.236Z,0.00
2019-01-27T18:09:39.105Z,0.00
2019-01-27T18:11:39.070Z,0.00
2019-01-27T18:12:39.328Z,0.00
2019-01-27T18:13:39.008Z,0.00
2019-01-27T18:14:39.038Z,0.00
2019-01-27T18:15:39.065Z,0.00
2019-01-27T18:16:40.197Z,0.00
2019-01-27T18:17:39.171Z,0.00
2019-01-27T18:18:39.297Z,0.00
2019-01-27T18:19:38.998Z,0.00
2019-01-27T18:20:38.843Z,0.00
2019-01-27T18:21:38.891Z,0.00
2019-01-27T18:22:38.922Z,0.00
2019-01-27T18:23:38.792Z,0.00
2019-01-27T18:24:38.741Z,0.00
2019-01-27T18:25:39.297Z,0.00
2019-01-27T18:27:38.674Z,0.00
2019-01-27T18:29:38.795Z,0.00
2019-01-27T18:30:38.609Z,0.00
2019-01-27T18:31:38.989Z,0.00
2019-01-27T18:32:38.723Z,0.00
2019-01-27T18:33:38.786Z,0.00
2019-01-27T18:34:38.651Z,0.00
2019-01-27T18:35:38.511Z,0.00
2019-01-27T18:36:38.566Z,0.00
2019-01-27T18:37:38.472Z,0.00
2019-01-27T18:38:38.781Z,0.00
2019-01-27T18:39:38.405Z,0.00
2019-01-27T18:40:39.152Z,0.00
2019-01-27T18:41:38.435Z,0.00
2019-01-27T18:42:38.320Z,0.00
2019-01-27T18:43:38.309Z,0.00
2019-01-27T18:44:38.770Z,0.00
2019-01-27T18:45:38.532Z,0.00
2019-01-27T18:47:39.296Z,0.00
2019-01-27T18:48:38.518Z,0.00
2019-01-27T18:49:38.262Z,0.00
2019-01-27T18:50:38.706Z,0.00
2019-01-27T18:51:38.115Z,0.00
2019-01-27T18:53:38.076Z,0.00
2019-01-27T18:54:38.009Z,0.00
2019-01-27T18:55:37.982Z,0.00
2019-01-27T18:57:38.243Z,0.00
2019-01-27T18:58:37.953Z,0.00
2019-01-27T18:59:37.889Z,0.00
2019-01-27T19:00:37.861Z,0.00
2019-01-27T19:01:37.875Z,0.00
2019-01-27T19:02:37.811Z,0.00
2019-01-27T19:03:38.099Z,0.00
2019-01-27T19:04:37.817Z,0.00
2019-01-27T19:05:37.779Z,0.00
2019-01-27T19:06:37.801Z,0.00
2019-01-27T19:07:37.707Z,0.00
2019-01-27T19:10:37.686Z,0.00
2019-01-27T19:11:37.692Z,0.00
2019-01-27T19:12:37.566Z,0.00
2019-01-27T19:13:38.196Z,0.00
2019-01-27T19:14:37.528Z,0.00
2019-01-27T19:15:37.802Z,0.00
2019-01-27T19:16:37.517Z,0.00
2019-01-27T19:17:37.470Z,0.00
2019-01-27T19:18:37.419Z,0.00
2019-01-27T19:19:37.414Z,0.00
2019-01-27T19:20:37.370Z,0.00
2019-01-27T19:21:37.659Z,0.00
2019-01-27T19:22:37.833Z,0.00
2019-01-27T19:23:37.344Z,0.00
2019-01-27T19:24:37.353Z,0.00
2019-01-27T19:25:37.386Z,0.00
2019-01-27T19:26:37.242Z,0.00
2019-01-27T19:27:37.545Z,0.00
2019-01-27T19:28:37.233Z,0.00
2019-01-27T19:29:37.294Z,0.00
2019-01-27T19:30:37.208Z,0.00
2019-01-27T19:31:37.236Z,0.00
2019-01-27T19:32:37.285Z,0.00
2019-01-27T19:33:37.414Z,0.00
2019-01-27T19:34:37.329Z,0.00
2019-01-27T19:36:37.058Z,0.00
2019-01-27T19:37:36.969Z,0.00
2019-01-27T19:38:37.136Z,0.00
2019-01-27T19:39:37.279Z,0.00
2019-01-27T19:40:36.940Z,0.00
2019-01-27T19:41:36.882Z,0.00
2019-01-27T19:42:36.965Z,0.00
2019-01-27T19:43:36.980Z,0.00
2019-01-27T19:44:36.834Z,0.00
2019-01-27T19:45:36.834Z,0.00
2019-01-27T19:46:37.154Z,0.00
2019-01-27T19:47:36.712Z,0.00
2019-01-27T19:48:36.702Z,0.00
2019-01-27T19:49:36.672Z,0.00
2019-01-27T19:50:36.657Z,0.00
2019-01-27T19:52:37.060Z,0.00
2019-01-27T19:53:36.722Z,0.00
2019-01-27T19:54:36.539Z,0.00
2019-01-27T19:55:36.512Z,0.00
2019-01-27T19:56:36.500Z,0.00
2019-01-27T19:57:36.472Z,0.00
2019-01-27T19:58:37.010Z,0.00
2019-01-27T19:59:36.447Z,0.00
2019-01-27T20:00:36.394Z,0.00
2019-01-27T20:01:36.436Z,0.00
2019-01-27T20:02:36.346Z,0.00
2019-01-27T20:03:36.333Z,0.00
2019-01-27T20:04:36.655Z,0.00
2019-01-27T20:05:36.550Z,0.00
2019-01-27T20:06:36.264Z,0.00
2019-01-27T20:07:36.629Z,0.00
2019-01-27T20:08:36.292Z,0.00
2019-01-27T20:09:36.184Z,0.00
2019-01-27T20:10:37.466Z,0.00
2019-01-27T20:11:36.122Z,0.00
2019-01-27T20:12:36.495Z,0.00
2019-01-27T20:13:36.102Z,0.00
2019-01-27T20:15:36.034Z,0.00
2019-01-27T20:16:36.350Z,0.00
2019-01-27T20:17:38.058Z,0.00
2019-01-27T20:18:35.948Z,0.00
2019-01-27T20:19:35.920Z,0.00
2019-01-27T20:20:35.952Z,0.00
2019-01-27T20:21:37.027Z,0.00
2019-01-27T20:23:36.425Z,0.00
2019-01-27T20:24:37.698Z,0.00
2019-01-27T20:25:37.492Z,0.00
2019-01-27T20:26:35.904Z,0.00
2019-01-27T20:27:35.729Z,0.00
2019-01-27T20:28:36.699Z,0.00
2019-01-27T20:30:36.098Z,0.00
2019-01-27T20:31:37.656Z,0.00
2019-01-27T20:32:36.362Z,0.00
2019-01-27T20:33:36.019Z,0.00
2019-01-27T20:34:35.660Z,0.00
2019-01-27T20:35:35.847Z,0.00
2019-01-27T20:36:36.306Z,0.00
2019-01-27T20:37:35.703Z,0.00
2019-01-27T20:38:35.475Z,0.00
2019-01-27T20:40:35.483Z,0.00
2019-01-27T20:41:35.386Z,0.00
2019-01-27T20:43:35.496Z,0.00
2019-01-27T20:44:35.399Z,0.00
2019-01-27T20:45:35.285Z,0.00
2019-01-27T20:46:35.543Z,0.00
2019-01-27T20:47:35.233Z,0.00
2019-01-27T20:48:35.547Z,0.00
2019-01-27T20:49:35.181Z,0.00
2019-01-27T20:50:35.172Z,0.00
2019-01-27T20:51:35.189Z,0.00
2019-01-27T20:52:35.259Z,0.00
2019-01-27T20:53:35.089Z,0.00
2019-01-27T20:54:35.401Z,0.00
2019-01-27T20:55:35.036Z,0.00
2019-01-27T20:56:35.014Z,0.00
2019-01-27T20:57:34.989Z,0.00
2019-01-27T20:58:35.194Z,0.00
2019-01-27T20:59:34.999Z,0.00
2019-01-27T21:00:35.214Z,0.00
2019-01-27T21:01:34.887Z,0.00
2019-01-27T21:02:35.357Z,0.00
2019-01-27T21:03:35.153Z,0.00
2019-01-27T21:05:34.845Z,0.00
2019-01-27T21:07:35.111Z,0.00
2019-01-27T21:08:35.532Z,0.00
2019-01-27T21:09:34.692Z,0.00
2019-01-27T21:10:34.682Z,0.00
2019-01-27T21:11:34.736Z,0.00
2019-01-27T21:12:34.686Z,0.00
2019-01-27T21:13:34.695Z,0.00
2019-01-27T21:14:34.861Z,0.00
2019-01-27T21:17:34.526Z,0.00
2019-01-27T21:18:34.462Z,0.00
2019-01-27T21:19:34.548Z,0.00
2019-01-27T21:20:34.418Z,0.00
2019-01-27T21:21:34.789Z,0.00
2019-01-27T21:22:34.394Z,0.00
2019-01-27T21:23:34.402Z,0.00
2019-01-27T21:24:34.336Z,0.00
2019-01-27T21:25:34.299Z,0.00
2019-01-27T21:26:34.970Z,0.00
2019-01-27T21:27:34.318Z,0.00
2019-01-27T21:28:34.512Z,0.00
2019-01-27T21:30:34.276Z,0.00
2019-01-27T21:31:34.433Z,0.00
2019-01-27T21:32:34.174Z,0.00
2019-01-27T21:33:34.084Z,0.00
2019-01-27T21:34:34.300Z,0.00
2019-01-27T21:35:34.483Z,0.00
2019-01-27T21:36:34.019Z,0.00
2019-01-27T21:37:34.345Z,0.00
2019-01-27T21:38:33.959Z,0.00
2019-01-27T21:39:34.010Z,0.00
2019-01-27T21:40:33.909Z,0.00
2019-01-27T21:41:34.255Z,0.00
2019-01-27T21:42:34.538Z,0.00
2019-01-27T21:43:33.831Z,0.00
2019-01-27T21:44:33.909Z,0.00
2019-01-27T21:45:33.789Z,0.00
2019-01-27T21:46:33.875Z,0.00
2019-01-27T21:47:34.160Z,0.00
2019-01-27T21:48:34.018Z,0.00
2019-01-27T21:49:33.787Z,0.00
2019-01-27T21:50:33.685Z,0.00
2019-01-27T21:51:33.740Z,0.00
2019-01-27T21:52:33.704Z,0.00
2019-01-27T21:53:33.643Z,0.00
2019-01-27T21:54:33.858Z,0.00
2019-01-27T21:55:33.553Z,0.00
2019-01-27T21:56:33.601Z,0.00
2019-01-27T21:59:33.477Z,0.00
2019-01-27T22:00:33.438Z,0.00
2019-01-27T22:02:33.361Z,0.00
2019-01-27T22:03:33.423Z,0.00
2019-01-27T22:04:33.308Z,0.00
2019-01-27T22:05:33.384Z,0.00
2019-01-27T22:06:34.476Z,0.00
2019-01-27T22:07:33.535Z,0.00
2019-01-27T22:08:33.605Z,0.00
2019-01-27T22:09:33.475Z,0.00
2019-01-27T22:10:33.332Z,0.00
2019-01-27T22:11:33.172Z,0.00
2019-01-27T22:12:33.121Z,0.00
2019-01-27T22:13:33.393Z,0.00
2019-01-27T22:14:33.219Z,0.00
2019-01-27T22:15:33.045Z,0.00
2019-01-27T22:16:33.187Z,0.00
2019-01-27T22:17:33.531Z,0.00
2019-01-27T22:18:33.082Z,0.00
2019-01-27T22:19:32.962Z,0.00
2019-01-27T22:20:34.001Z,0.00
2019-01-27T22:21:32.996Z,0.00
2019-01-27T22:22:32.893Z,0.00
2019-01-27T22:24:33.081Z,0.00
2019-01-27T22:25:33.056Z,0.00
2019-01-27T22:26:32.745Z,0.00
2019-01-27T22:27:33.020Z,0.00
2019-01-27T22:28:32.926Z,0.00
2019-01-27T22:29:33.295Z,0.00
2019-01-27T22:31:32.714Z,0.00
2019-01-27T22:32:32.651Z,0.00
2019-01-27T22:33:32.769Z,0.00
2019-01-27T22:34:32.956Z,0.00
2019-01-27T22:35:32.573Z,0.00
2019-01-27T22:36:32.499Z,0.00
2019-01-27T22:37:32.461Z,0.00
2019-01-27T22:38:32.764Z,0.00
2019-01-27T22:39:32.436Z,0.00
2019-01-27T22:40:32.678Z,0.00
2019-01-27T22:42:32.945Z,0.00
2019-01-27T22:43:32.331Z,0.00
2019-01-27T22:44:32.390Z,0.00
2019-01-27T22:45:32.259Z,0.00
2019-01-27T22:46:32.337Z,0.00
2019-01-27T22:47:32.206Z,0.00
2019-01-27T22:48:32.260Z,0.00
2019-01-27T22:49:32.465Z,0.00
2019-01-27T22:50:32.134Z,0.00
2019-01-27T22:51:32.220Z,0.00
2019-01-27T22:52:32.272Z,0.00
2019-01-27T22:54:32.124Z,0.00
2019-01-27T22:55:34.645Z,0.00
2019-01-27T22:56:32.301Z,0.00
2019-01-27T22:57:32.019Z,0.00
2019-01-27T22:58:32.036Z,0.00
2019-01-27T22:59:31.923Z,0.00
2019-01-27T23:00:33.450Z,0.00
2019-01-27T23:01:36.927Z,0.00
2019-01-27T23:02:38.397Z,0.00
2019-01-27T23:03:31.799Z,0.00
2019-01-27T23:04:32.484Z,0.00
2019-01-27T23:05:31.751Z,0.00
2019-01-27T23:06:31.777Z,0.00
2019-01-27T23:07:31.805Z,0.00
2019-01-27T23:08:32.078Z,0.00
2019-01-27T23:09:31.712Z,0.00
2019-01-27T23:10:31.767Z,0.00
2019-01-27T23:11:31.593Z,0.00
2019-01-27T23:12:31.640Z,0.00
2019-01-27T23:13:31.545Z,0.00
2019-01-27T23:14:31.866Z,0.00
2019-01-27T23:15:31.790Z,0.00
2019-01-27T23:16:31.549Z,0.00
2019-01-27T23:17:31.444Z,0.00
2019-01-27T23:18:31.472Z,0.00
2019-01-27T23:19:31.394Z,0.00
2019-01-27T23:20:31.853Z,0.00
2019-01-27T23:21:31.333Z,0.00
2019-01-27T23:22:31.312Z,0.00
2019-01-27T23:23:31.303Z,0.00
2019-01-27T23:24:31.317Z,0.00
2019-01-27T23:25:31.355Z,0.00
2019-01-27T23:26:31.561Z,0.00
2019-01-27T23:27:31.229Z,0.00
2019-01-27T23:28:31.162Z,0.00
2019-01-27T23:29:31.138Z,0.00
2019-01-27T23:30:31.161Z,0.00
2019-01-27T23:31:31.236Z,0.00
2019-01-27T23:32:31.306Z,0.00
2019-01-27T23:33:31.026Z,0.00
2019-01-27T23:34:31.004Z,0.00
2019-01-27T23:35:30.988Z,0.00
2019-01-27T23:36:31.061Z,0.00
2019-01-27T23:38:31.200Z,0.00
2019-01-27T23:39:30.895Z,0.00
2019-01-27T23:41:31.120Z,0.00
2019-01-27T23:42:31.151Z,0.00
2019-01-27T23:43:30.771Z,0.00
2019-01-27T23:44:30.765Z,0.00
2019-01-27T23:45:31.150Z,0.00
2019-01-27T23:46:30.754Z,0.00
2019-01-27T23:47:30.663Z,0.00
2019-01-27T23:48:30.696Z,0.00
2019-01-27T23:49:30.634Z,0.00
2019-01-27T23:50:30.604Z,0.00
2019-01-27T23:51:30.659Z,0.00
2019-01-27T23:52:31.848Z,0.00
2019-01-27T23:53:30.616Z,0.00
2019-01-27T23:54:31.239Z,0.00
2019-01-27T23:55:30.460Z,0.00
2019-01-27T23:56:30.436Z,0.00
2019-01-27T23:57:30.403Z,0.00
2019-01-27T23:58:30.505Z,0.00
